Time;durP1;ratioP1;P1;durP2;ratioP2;P2;SDS_P1;SDS_P2;PMS_P1;PMS_P2;Temp;Humidity;BMP_temperature;BMP_pressure;BME280_temperature;BME280_humidity;BME280_pressure;Samples;Min_cycle;Max_cycle;Signal;HPM_P1;HPM_P2
2022/06/30 00:00:14;;;;;;;0.00;0.00;;;23.00;89.80;;;;;;4928318;29;20079;-78
2022/06/30 00:02:40;;;;;;;0.00;0.00;;;22.90;90.00;;;;;;4929362;29;20318;-77
2022/06/30 00:05:07;;;;;;;0.00;0.00;;;22.90;90.20;;;;;;4960939;29;20024;-77
2022/06/30 00:07:33;;;;;;;0.00;0.00;;;22.90;90.50;;;;;;4930067;29;20051;-79
2022/06/30 00:09:59;;;;;;;0.00;0.00;;;22.90;90.60;;;;;;4929294;29;20020;-79
2022/06/30 00:12:25;;;;;;;0.00;0.00;;;22.90;90.60;;;;;;4928809;29;20042;-79
2022/06/30 00:14:51;;;;;;;0.00;0.00;;;22.90;90.70;;;;;;4959795;29;20044;-78
2022/06/30 00:17:17;;;;;;;0.00;0.00;;;22.80;90.80;;;;;;4960324;29;20020;-80
2022/06/30 00:19:45;;;;;;;0.00;0.00;;;22.80;91.00;;;;;;4966029;29;20179;-77
2022/06/30 00:22:11;;;;;;;0.00;0.00;;;22.80;91.20;;;;;;4936938;29;20087;-80
2022/06/30 00:24:37;;;;;;;0.00;0.00;;;22.80;91.50;;;;;;4929815;29;20024;-79
2022/06/30 00:27:04;;;;;;;0.00;0.00;;;22.80;91.70;;;;;;4960622;29;20298;-78
2022/06/30 00:29:30;;;;;;;0.00;0.00;;;22.80;91.80;;;;;;4930208;29;20079;-79
2022/06/30 00:31:55;;;;;;;0.00;0.00;;;22.80;92.10;;;;;;4960113;29;20028;-76
2022/06/30 00:34:21;;;;;;;0.00;0.00;;;22.80;92.20;;;;;;4959783;29;20068;-78
2022/06/30 00:36:46;;;;;;;0.00;0.00;;;22.70;92.30;;;;;;4927595;29;20078;-78
2022/06/30 00:39:12;;;;;;;0.00;0.00;;;22.80;92.50;;;;;;4959667;29;20319;-78
2022/06/30 00:41:41;;;;;;;0.00;0.00;;;22.70;92.60;;;;;;4928904;29;20367;-77
2022/06/30 00:44:10;;;;;;;0.00;0.00;;;22.80;92.80;;;;;;4928494;29;20092;-78
2022/06/30 00:46:36;;;;;;;0.00;0.00;;;22.80;92.90;;;;;;4959437;29;20020;-78
2022/06/30 00:49:01;;;;;;;0.00;0.00;;;22.80;93.10;;;;;;4927508;29;20043;-77
2022/06/30 00:51:27;;;;;;;0.00;0.00;;;22.80;93.10;;;;;;4927559;29;20036;-79
2022/06/30 00:53:55;;;;;;;0.00;0.00;;;22.80;93.20;;;;;;4928131;29;20020;-79
2022/06/30 00:56:25;;;;;;;0.00;0.00;;;22.80;93.30;;;;;;4928236;29;20040;-78
2022/06/30 00:58:53;;;;;;;0.00;0.00;;;22.80;93.40;;;;;;4928026;29;20024;-80
2022/06/30 01:01:19;;;;;;;0.00;0.00;;;22.70;93.50;;;;;;4927881;29;20333;-78
2022/06/30 01:03:45;;;;;;;0.00;0.00;;;22.70;93.60;;;;;;4928182;29;20035;-78
2022/06/30 01:06:11;;;;;;;0.00;0.00;;;22.70;93.70;;;;;;4958884;29;20020;-78
2022/06/30 01:08:38;;;;;;;0.00;0.00;;;22.70;93.80;;;;;;4928632;29;20055;-78
2022/06/30 01:13:49;;;;;;;0.00;0.00;;;22.70;94.00;;;;;;4927747;29;20083;-77
2022/06/30 01:16:15;;;;;;;0.00;0.00;;;22.70;94.00;;;;;;4928180;29;20027;-78
2022/06/30 01:18:41;;;;;;;0.00;0.00;;;22.70;94.10;;;;;;4928169;29;20283;-78
2022/06/30 01:21:07;;;;;;;0.00;0.00;;;22.70;94.10;;;;;;4927023;29;20105;-77
2022/06/30 01:23:32;;;;;;;0.00;0.00;;;22.70;94.20;;;;;;4928026;29;20036;-79
2022/06/30 01:25:58;;;;;;;0.00;0.00;;;22.70;94.30;;;;;;4958724;29;20020;-78
2022/06/30 01:28:24;;;;;;;0.00;0.00;;;22.70;94.30;;;;;;4927965;29;20047;-77
2022/06/30 01:30:49;;;;;;;0.00;0.00;;;22.70;94.30;;;;;;4921434;29;20037;-78
2022/06/30 01:33:15;;;;;;;0.00;0.00;;;22.60;94.40;;;;;;4910426;29;20096;-79
2022/06/30 01:35:41;;;;;;;0.00;0.00;;;22.70;94.50;;;;;;4918672;29;20276;-79
2022/06/30 01:38:06;;;;;;;0.00;0.00;;;22.60;94.60;;;;;;4908681;29;20315;-77
2022/06/30 01:40:35;;;;;;;0.00;0.00;;;22.60;94.90;;;;;;4904312;29;20316;-77
2022/06/30 01:43:02;;;;;;;0.00;0.00;;;22.60;95.10;;;;;;4910022;29;20029;-78
2022/06/30 01:45:27;;;;;;;0.00;0.00;;;22.60;95.30;;;;;;4908425;29;20044;-78
2022/06/30 01:47:55;;;;;;;0.00;0.00;;;22.60;95.40;;;;;;4922248;29;20115;-77
2022/06/30 01:50:24;;;;;;;0.00;0.00;;;22.60;95.60;;;;;;4908732;29;20024;-78
2022/06/30 01:52:50;;;;;;;0.00;0.00;;;22.60;95.80;;;;;;4907947;29;20073;-78
2022/06/30 01:55:16;;;;;;;0.00;0.00;;;22.50;95.90;;;;;;4923403;29;20051;-79
2022/06/30 01:57:41;;;;;;;0.00;0.00;;;22.60;96.30;;;;;;4958324;29;20020;-78
2022/06/30 02:00:11;;;;;;;0.00;0.00;;;22.50;96.00;;;;;;4927248;29;20096;-80
2022/06/30 02:02:37;;;;;;;0.00;0.00;;;22.60;96.10;;;;;;4926924;29;20028;-79
2022/06/30 02:05:03;;;;;;;0.00;0.00;;;22.60;96.20;;;;;;4926897;29;20084;-78
2022/06/30 02:07:29;;;;;;;0.00;0.00;;;22.50;96.10;;;;;;4927532;29;20020;-80
2022/06/30 02:09:55;;;;;;;0.00;0.00;;;22.50;96.20;;;;;;4926373;29;20048;-78
2022/06/30 02:15:08;;;;;;;0.00;0.00;;;22.50;95.90;;;;;;4926720;29;20039;-77
2022/06/30 02:17:34;;;;;;;0.00;0.00;;;22.60;96.00;;;;;;4957948;29;20024;-77
2022/06/30 02:20:00;;;;;;;0.00;0.00;;;22.50;96.30;;;;;;4926824;29;20031;-77
2022/06/30 02:22:26;;;;;;;0.00;0.00;;;22.60;96.10;;;;;;4957815;29;20028;-77
2022/06/30 02:24:52;;;;;;;0.00;0.00;;;22.60;96.20;;;;;;4956631;29;20028;-76
2022/06/30 02:27:20;;;;;;;0.00;0.00;;;22.60;96.20;;;;;;4957557;29;20024;-78
2022/06/30 02:29:46;;;;;;;0.00;0.00;;;22.60;96.20;;;;;;4926796;29;20207;-78
2022/06/30 02:32:12;;;;;;;0.00;0.00;;;22.60;96.20;;;;;;4926578;29;20036;-77
2022/06/30 02:34:37;;;;;;;0.00;0.00;;;22.60;96.20;;;;;;4927367;29;20311;-78
2022/06/30 02:37:03;;;;;;;0.00;0.00;;;22.60;96.20;;;;;;4925536;29;20065;-77
2022/06/30 02:39:29;;;;;;;0.00;0.00;;;22.60;96.20;;;;;;4957533;29;20027;-77
2022/06/30 02:41:55;;;;;;;0.00;0.00;;;22.50;96.30;;;;;;4926284;29;20027;-78
2022/06/30 02:44:20;;;;;;;0.00;0.00;;;22.50;96.50;;;;;;4957740;29;20284;-80
2022/06/30 02:46:49;;;;;;;0.00;0.00;;;22.50;96.70;;;;;;4926847;29;20059;-79
2022/06/30 02:49:17;;;;;;;0.00;0.00;;;22.50;96.90;;;;;;4956213;29;20039;-80
2022/06/30 02:51:42;;;;;;;0.00;0.00;;;22.50;97.10;;;;;;4925572;29;20036;-79
2022/06/30 02:54:08;;;;;;;0.00;0.00;;;22.50;97.20;;;;;;4926214;29;20050;-79
2022/06/30 02:56:34;;;;;;;0.00;0.00;;;22.40;97.30;;;;;;4927052;29;20208;-79
2022/06/30 02:58:59;;;;;;;0.00;0.00;;;22.50;97.40;;;;;;4926010;29;20211;-79
2022/06/30 03:01:25;;;;;;;0.00;0.00;;;22.40;97.50;;;;;;4925694;29;20039;-78
2022/06/30 03:03:51;;;;;;;0.00;0.00;;;22.40;97.60;;;;;;4957257;29;20048;-80
2022/06/30 03:06:16;;;;;;;0.00;0.00;;;22.40;97.70;;;;;;4957342;29;20032;-80
2022/06/30 03:08:42;;;;;;;0.00;0.00;;;22.40;97.90;;;;;;4927860;29;20083;-80
2022/06/30 03:11:08;;;;;;;0.00;0.00;;;22.40;97.90;;;;;;4958878;29;20039;-82
2022/06/30 03:13:33;;;;;;;0.00;0.00;;;22.40;98.10;;;;;;4927270;29;20024;-79
2022/06/30 03:16:01;;;;;;;0.00;0.00;;;22.40;98.10;;;;;;4927346;29;20252;-79
2022/06/30 03:18:27;;;;;;;0.00;0.00;;;22.40;98.10;;;;;;4959085;29;20020;-79
2022/06/30 03:20:53;;;;;;;0.00;0.00;;;22.40;98.10;;;;;;4959877;29;20038;-79
2022/06/30 03:23:19;;;;;;;0.00;0.00;;;22.40;98.10;;;;;;4961713;29;20048;-78
2022/06/30 03:25:44;;;;;;;0.00;0.00;;;22.40;98.20;;;;;;4928442;29;20028;-78
2022/06/30 03:28:10;;;;;;;0.00;0.00;;;22.40;98.20;;;;;;4927100;29;20031;-79
2022/06/30 03:30:35;;;;;;;0.00;0.00;;;22.40;98.20;;;;;;4925848;29;20315;-78
2022/06/30 03:33:01;;;;;;;0.00;0.00;;;22.40;98.20;;;;;;4925815;29;20359;-78
2022/06/30 03:35:27;;;;;;;0.00;0.00;;;22.40;98.20;;;;;;4925987;29;20032;-80
2022/06/30 03:37:52;;;;;;;0.00;0.00;;;22.30;98.30;;;;;;4923693;29;20088;-80
2022/06/30 03:40:18;;;;;;;0.00;0.00;;;22.40;98.40;;;;;;4955833;29;20024;-79
2022/06/30 03:42:43;;;;;;;0.00;0.00;;;22.30;98.50;;;;;;4926185;29;20036;-80
2022/06/30 03:45:09;;;;;;;0.00;0.00;;;22.40;98.60;;;;;;4925637;29;20024;-78
2022/06/30 03:47:35;;;;;;;0.00;0.00;;;22.40;98.70;;;;;;4925824;29;20027;-79
2022/06/30 03:50:00;;;;;;;0.00;0.00;;;22.40;98.70;;;;;;4923108;29;20056;-76
2022/06/30 03:52:27;;;;;;;0.00;0.00;;;22.40;98.70;;;;;;4955827;29;20024;-80
2022/06/30 03:54:53;;;;;;;0.00;0.00;;;22.40;98.90;;;;;;4952871;29;20360;-79
2022/06/30 03:57:18;;;;;;;0.00;0.00;;;22.30;98.90;;;;;;4922355;29;20103;-79
2022/06/30 03:59:44;;;;;;;0.00;0.00;;;22.30;99.10;;;;;;4923792;29;20044;-79
2022/06/30 04:02:10;;;;;;;0.00;0.00;;;22.40;99.20;;;;;;4921019;29;20027;-79
2022/06/30 04:04:35;;;;;;;0.00;0.00;;;22.40;99.40;;;;;;4923712;29;20067;-79
2022/06/30 04:07:01;;;;;;;0.00;0.00;;;22.40;99.40;;;;;;4923455;29;20087;-77
2022/06/30 04:09:26;;;;;;;0.00;0.00;;;22.40;99.50;;;;;;4923530;29;20036;-78
2022/06/30 04:11:52;;;;;;;0.00;0.00;;;22.40;99.40;;;;;;4934829;29;20043;-78
2022/06/30 04:14:18;;;;;;;0.00;0.00;;;22.50;99.50;;;;;;4923140;29;20032;-78
2022/06/30 04:16:43;;;;;;;0.00;0.00;;;22.50;99.50;;;;;;4954278;29;20016;-78
2022/06/30 04:19:09;;;;;;;0.00;0.00;;;22.50;99.50;;;;;;4923223;29;20177;-78
2022/06/30 04:21:34;;;;;;;0.00;0.00;;;22.50;99.60;;;;;;4923643;29;20029;-78
2022/06/30 04:24:00;;;;;;;0.00;0.00;;;22.60;99.40;;;;;;4922756;29;20020;-77
2022/06/30 04:26:26;;;;;;;0.00;0.00;;;22.70;99.30;;;;;;4922153;29;20115;-78
2022/06/30 04:28:51;;;;;;;0.00;0.00;;;22.80;99.30;;;;;;4923596;29;20407;-78
2022/06/30 04:34:01;;;;;;;0.00;0.00;;;22.80;99.10;;;;;;4924687;29;20375;-77
2022/06/30 04:36:27;;;;;;;0.00;0.00;;;22.90;99.00;;;;;;4926228;29;20028;-78
2022/06/30 04:38:52;;;;;;;0.00;0.00;;;22.90;98.60;;;;;;4924726;29;20025;-78
2022/06/30 04:41:24;;;;;;;0.00;0.00;;;22.90;98.60;;;;;;4926454;29;20211;-78
2022/06/30 04:43:54;;;;;;;0.00;0.00;;;22.90;98.80;;;;;;4926409;29;20024;-79
2022/06/30 04:46:21;;;;;;;0.00;0.00;;;22.90;98.80;;;;;;4925349;29;20046;-77
2022/06/30 04:48:46;;;;;;;0.00;0.00;;;22.90;98.60;;;;;;4927160;29;20046;-79
2022/06/30 04:51:12;;;;;;;0.00;0.00;;;22.90;98.70;;;;;;4923865;29;20295;-78
2022/06/30 04:53:40;;;;;;;0.00;0.00;;;22.90;98.80;;;;;;4927419;29;20020;-78
2022/06/30 04:56:06;;;;;;;0.00;0.00;;;22.80;98.80;;;;;;4924725;29;20112;-78
2022/06/30 04:58:32;;;;;;;0.00;0.00;;;22.80;98.80;;;;;;4925971;29;20036;-78
2022/06/30 05:00:57;;;;;;;0.00;0.00;;;22.80;98.90;;;;;;4923105;29;20040;-77
2022/06/30 05:03:23;;;;;;;0.00;0.00;;;22.80;99.00;;;;;;4929655;29;20016;-78
2022/06/30 05:05:49;;;;;;;0.00;0.00;;;22.90;99.40;;;;;;4926668;29;20064;-78
2022/06/30 05:08:14;;;;;;;0.00;0.00;;;23.00;99.40;;;;;;4925094;29;20038;-77
2022/06/30 05:10:40;;;;;;;0.00;0.00;;;23.10;99.30;;;;;;4956313;29;20195;-78
2022/06/30 05:13:07;;;;;;;0.00;0.00;;;23.10;99.20;;;;;;4926247;29;20303;-77
2022/06/30 05:15:33;;;;;;;0.00;0.00;;;23.30;99.30;;;;;;4933598;29;20070;-76
2022/06/30 05:17:59;;;;;;;0.00;0.00;;;23.40;99.00;;;;;;4930276;29;20071;-77
2022/06/30 05:20:25;;;;;;;0.00;0.00;;;23.50;98.80;;;;;;4926852;29;20075;-78
2022/06/30 05:22:51;;;;;;;0.00;0.00;;;23.70;98.80;;;;;;4961262;29;20031;-76
2022/06/30 05:28:02;;;;;;;0.00;0.00;;;24.00;98.20;;;;;;4946966;29;20067;-77
2022/06/30 05:30:28;;;;;;;0.00;0.00;;;24.30;97.60;;;;;;4944866;29;20200;-78
2022/06/30 05:32:55;;;;;;;0.00;0.00;;;24.40;97.10;;;;;;4926589;29;20028;-78
2022/06/30 05:35:20;;;;;;;0.00;0.00;;;24.50;96.50;;;;;;4924921;29;20031;-77
2022/06/30 05:37:46;;;;;;;0.00;0.00;;;24.60;96.10;;;;;;4926841;29;20020;-79
2022/06/30 05:40:12;;;;;;;0.00;0.00;;;24.70;96.00;;;;;;4926138;29;20028;-77
2022/06/30 05:42:37;;;;;;;0.00;0.00;;;24.80;95.50;;;;;;4925923;29;20047;-77
2022/06/30 05:45:04;;;;;;;0.00;0.00;;;24.80;95.10;;;;;;4926247;29;20028;-73
2022/06/30 05:47:30;;;;;;;0.00;0.00;;;24.80;95.20;;;;;;4926605;29;20034;-81
2022/06/30 05:49:56;;;;;;;0.00;0.00;;;24.80;94.90;;;;;;4939768;29;20094;-80
2022/06/30 05:52:21;;;;;;;0.00;0.00;;;24.80;94.90;;;;;;4939797;29;20106;-82
2022/06/30 05:54:47;;;;;;;0.00;0.00;;;24.80;94.80;;;;;;4943642;29;20062;-75
2022/06/30 05:57:13;;;;;;;0.00;0.00;;;24.70;94.80;;;;;;4938381;29;20066;-80
2022/06/30 05:59:38;;;;;;;0.00;0.00;;;24.70;94.80;;;;;;4947018;29;20110;-80
2022/06/30 06:02:04;;;;;;;0.00;0.00;;;24.70;94.90;;;;;;4947510;29;20023;-80
2022/06/30 06:04:30;;;;;;;0.00;0.00;;;24.70;94.90;;;;;;4947133;29;20023;-80
2022/06/30 06:06:56;;;;;;;0.00;0.00;;;24.70;94.60;;;;;;4944605;29;20254;-81
2022/06/30 06:09:21;;;;;;;0.00;0.00;;;24.80;94.50;;;;;;4931704;29;20287;-74
2022/06/30 06:11:47;;;;;;;0.00;0.00;;;24.80;94.70;;;;;;4929004;29;20060;-79
2022/06/30 06:14:13;;;;;;;0.00;0.00;;;24.90;94.70;;;;;;4927454;29;20024;-77
2022/06/30 06:16:39;;;;;;;0.00;0.00;;;25.00;94.60;;;;;;4927032;29;20064;-78
2022/06/30 06:19:04;;;;;;;0.00;0.00;;;25.20;94.50;;;;;;4925547;29;20020;-78
2022/06/30 06:21:32;;;;;;;0.00;0.00;;;25.30;94.00;;;;;;4924139;29;20059;-79
2022/06/30 06:23:57;;;;;;;0.00;0.00;;;25.60;94.00;;;;;;4926327;29;20024;-77
2022/06/30 06:26:23;;;;;;;0.00;0.00;;;26.10;93.80;;;;;;4931312;29;20083;-78
2022/06/30 06:29:08;;;;;;;0.00;0.00;;;26.80;92.30;;;;;;4931460;29;20220;-78
2022/06/30 06:31:39;;;;;;;0.00;0.00;;;27.50;91.00;;;;;;4925324;29;20028;-79
2022/06/30 06:34:06;;;;;;;0.00;0.00;;;28.20;89.70;;;;;;4909394;29;20277;-79
2022/06/30 06:36:32;;;;;;;0.00;0.00;;;28.30;85.50;;;;;;4926215;29;20171;-79
2022/06/30 06:38:58;;;;;;;0.00;0.00;;;28.10;83.60;;;;;;4925763;29;20020;-78
2022/06/30 06:41:24;;;;;;;0.00;0.00;;;28.00;83.70;;;;;;4922929;29;20172;-77
2022/06/30 06:43:51;;;;;;;0.00;0.00;;;27.60;83.90;;;;;;4923733;29;20239;-79
2022/06/30 06:46:18;;;;;;;0.00;0.00;;;27.30;84.30;;;;;;4924508;29;20032;-76
2022/06/30 06:48:44;;;;;;;0.00;0.00;;;27.00;85.10;;;;;;4920929;29;20028;-79
2022/06/30 06:51:10;;;;;;;0.00;0.00;;;26.70;86.10;;;;;;4924337;29;20031;-75
2022/06/30 06:53:37;;;;;;;0.00;0.00;;;26.60;85.70;;;;;;4923764;29;20192;-80
2022/06/30 06:56:04;;;;;;;0.00;0.00;;;26.30;86.60;;;;;;4921432;29;20118;-79
2022/06/30 06:58:30;;;;;;;0.00;0.00;;;26.10;86.60;;;;;;4924151;29;20052;-79
2022/06/30 07:00:55;;;;;;;0.00;0.00;;;26.00;87.60;;;;;;4923694;29;20192;-82
2022/06/30 07:03:21;;;;;;;0.00;0.00;;;26.00;87.20;;;;;;4925441;29;20094;-81
2022/06/30 07:05:47;;;;;;;0.00;0.00;;;26.00;87.90;;;;;;4925342;29;20092;-80
2022/06/30 07:08:13;;;;;;;0.00;0.00;;;26.30;86.50;;;;;;4938252;29;20012;-78
2022/06/30 07:10:39;;;;;;;0.00;0.00;;;27.00;85.80;;;;;;4938055;29;20026;-79
2022/06/30 07:13:05;;;;;;;0.00;0.00;;;27.50;83.60;;;;;;4936681;29;20079;-77
2022/06/30 07:15:30;;;;;;;0.00;0.00;;;28.00;81.90;;;;;;4934852;29;20382;-75
2022/06/30 07:17:56;;;;;;;0.00;0.00;;;28.40;80.70;;;;;;4917476;29;20459;-82
2022/06/30 07:20:22;;;;;;;0.00;0.00;;;28.70;81.50;;;;;;4936190;29;20023;-82
2022/06/30 07:22:48;;;;;;;0.00;0.00;;;29.10;79.50;;;;;;4933057;29;20243;-81
2022/06/30 07:25:14;;;;;;;0.00;0.00;;;29.60;77.60;;;;;;4926116;29;20028;-81
2022/06/30 07:27:39;;;;;;;0.00;0.00;;;29.80;75.80;;;;;;4935193;29;20065;-81
2022/06/30 07:30:06;;;;;;;0.00;0.00;;;29.60;76.20;;;;;;4938389;29;20016;-81
2022/06/30 07:32:32;;;;;;;0.00;0.00;;;29.30;76.80;;;;;;4924893;29;20040;-79
2022/06/30 07:34:57;;;;;;;0.00;0.00;;;28.80;77.60;;;;;;4929057;29;20027;-77
2022/06/30 07:37:23;;;;;;;0.00;0.00;;;28.40;78.80;;;;;;4960114;29;20043;-78
2022/06/30 07:39:49;;;;;;;0.00;0.00;;;28.10;80.00;;;;;;4929485;29;20035;-77
2022/06/30 07:42:15;;;;;;;0.00;0.00;;;27.90;81.40;;;;;;4929929;29;20047;-80
2022/06/30 07:44:41;;;;;;;0.00;0.00;;;27.80;82.10;;;;;;4930604;29;20020;-81
2022/06/30 07:47:07;;;;;;;0.00;0.00;;;27.60;82.70;;;;;;4930801;29;20066;-80
2022/06/30 07:49:33;;;;;;;0.00;0.00;;;27.50;83.40;;;;;;4928698;29;20300;-81
2022/06/30 07:51:58;;;;;;;0.00;0.00;;;27.50;84.90;;;;;;4927197;29;20311;-81
2022/06/30 07:54:24;;;;;;;0.00;0.00;;;27.50;85.50;;;;;;4928930;29;20031;-81
2022/06/30 07:56:50;;;;;;;0.00;0.00;;;27.50;84.50;;;;;;4927032;29;20103;-82
2022/06/30 07:59:15;;;;;;;0.00;0.00;;;27.60;83.80;;;;;;4926374;29;20090;-80
2022/06/30 08:01:41;;;;;;;0.00;0.00;;;27.80;84.00;;;;;;4926092;29;20403;-81
2022/06/30 08:04:07;;;;;;;0.00;0.00;;;28.00;84.10;;;;;;4928212;29;20020;-87
2022/06/30 08:06:33;;;;;;;0.00;0.00;;;28.50;82.70;;;;;;4927897;29;20023;-82
2022/06/30 08:08:58;;;;;;;0.00;0.00;;;29.20;81.80;;;;;;4930915;29;20043;-82
2022/06/30 08:11:24;;;;;;;0.00;0.00;;;30.00;79.70;;;;;;4929502;29;20047;-83
2022/06/30 08:13:50;;;;;;;0.00;0.00;;;30.70;78.00;;;;;;4932269;29;20311;-82
2022/06/30 08:16:15;;;;;;;0.00;0.00;;;31.50;76.20;;;;;;4935169;29;20059;-77
2022/06/30 08:18:42;;;;;;;0.00;0.00;;;32.30;73.70;;;;;;4953154;29;20032;-83
2022/06/30 08:21:09;;;;;;;0.00;0.00;;;32.80;71.60;;;;;;4916537;29;20060;-81
2022/06/30 08:23:35;;;;;;;0.00;0.00;;;32.70;70.40;;;;;;4963470;29;20338;-82
2022/06/30 08:26:01;;;;;;;0.00;0.00;;;33.10;69.60;;;;;;4932513;29;20088;-84
2022/06/30 08:28:27;;;;;;;0.00;0.00;;;33.40;69.50;;;;;;4961928;29;20215;-84
2022/06/30 08:30:52;;;;;;;0.00;0.00;;;34.00;68.40;;;;;;4931717;29;20036;-79
2022/06/30 08:33:18;;;;;;;0.00;0.00;;;34.20;67.10;;;;;;4932638;29;20071;-83
2022/06/30 08:35:44;;;;;;;0.00;0.00;;;34.50;66.30;;;;;;4930856;29;20020;-81
2022/06/30 08:38:10;;;;;;;0.00;0.00;;;34.70;65.20;;;;;;4960156;29;20020;-82
2022/06/30 08:43:24;;;;;;;0.00;0.00;;;34.90;63.60;;;;;;4929028;29;20042;-83
2022/06/30 08:45:52;;;;;;;0.00;0.00;;;35.20;62.50;;;;;;4930209;29;20323;-86
2022/06/30 08:48:18;;;;;;;0.00;0.00;;;35.60;61.60;;;;;;4959881;29;20035;-83
2022/06/30 08:50:45;;;;;;;0.00;0.00;;;35.90;62.10;;;;;;4925915;29;20024;-80
2022/06/30 08:53:15;;;;;;;0.00;0.00;;;36.40;60.40;;;;;;4927539;29;20104;-83
2022/06/30 08:55:41;;;;;;;0.00;0.00;;;37.30;60.40;;;;;;4927921;29;20282;-81
2022/06/30 08:58:08;;;;;;;0.00;0.00;;;37.90;58.60;;;;;;4928348;29;20027;-81
2022/06/30 09:00:36;;;;;;;0.00;0.00;;;38.80;58.50;;;;;;4927228;29;20128;-83
2022/06/30 09:03:03;;;;;;;0.00;0.00;;;39.20;55.70;;;;;;4926858;29;20032;-81
2022/06/30 09:05:31;;;;;;;0.00;0.00;;;40.10;58.30;;;;;;4927344;29;20024;-82
2022/06/30 09:07:57;;;;;;;0.00;0.00;;;40.60;55.20;;;;;;4927078;29;20326;-80
2022/06/30 09:10:25;;;;;;;;;;;41.40;55.30;;;;;;4957522;28;20251;-81
2022/06/30 09:13:01;;;;;;;0.00;0.00;;;41.80;54.20;;;;;;4927472;29;20090;-82
2022/06/30 09:15:32;;;;;;;0.00;0.00;;;42.40;53.80;;;;;;4927993;29;20095;-82
2022/06/30 09:18:00;;;;;;;0.00;0.00;;;43.20;51.30;;;;;;4926430;29;20028;-81
2022/06/30 09:20:53;;;;;;;0.00;0.00;;;43.40;50.00;;;;;;4959885;29;20043;-82
2022/06/30 09:23:27;;;;;;;0.00;0.00;;;43.90;50.50;;;;;;4925392;29;20042;-81
2022/06/30 09:26:01;;;;;;;0.00;0.00;;;43.90;48.50;;;;;;4930467;29;20024;-81
2022/06/30 09:28:42;;;;;;;0.00;0.00;;;44.00;46.20;;;;;;4909423;29;20039;-82
2022/06/30 09:31:09;;;;;;;0.00;0.00;;;43.70;47.50;;;;;;4920884;29;20235;-82
2022/06/30 09:33:38;;;;;;;0.00;0.00;;;44.00;47.40;;;;;;4932145;29;20295;-82
2022/06/30 09:36:25;;;;;;;0.00;0.00;;;43.70;46.10;;;;;;4935628;29;20023;-82
2022/06/30 09:39:03;;;;;;;0.00;0.00;;;44.10;46.10;;;;;;4933807;29;20223;-82
2022/06/30 09:41:31;;;;;;;0.00;0.00;;;44.80;45.20;;;;;;4933134;29;20345;-82
2022/06/30 09:43:57;;;;;;;0.00;0.00;;;46.00;45.70;;;;;;4934958;29;20082;-81
2022/06/30 09:46:23;;;;;;;0.00;0.00;;;45.90;43.60;;;;;;4914478;29;20039;-80
2022/06/30 09:48:49;;;;;;;0.00;0.00;;;46.40;44.20;;;;;;4924209;29;20092;-81
2022/06/30 09:51:15;;;;;;;0.00;0.00;;;46.30;43.70;;;;;;4925602;29;20028;-75
2022/06/30 09:53:41;;;;;;;0.00;0.00;;;45.90;43.10;;;;;;4925423;29;20043;-81
2022/06/30 09:56:14;;;;;;;0.00;0.00;;;45.60;43.20;;;;;;4922339;29;20082;-80
2022/06/30 09:58:42;;;;;;;0.00;0.00;;;45.90;43.40;;;;;;4925304;29;20028;-81
2022/06/30 10:01:09;;;;;;;0.00;0.00;;;45.30;42.30;;;;;;4956433;29;20024;-83
2022/06/30 10:03:44;;;;;;;0.00;0.00;;;45.50;43.80;;;;;;4925541;29;20431;-81
2022/06/30 10:06:15;;;;;;;0.00;0.00;;;45.60;43.10;;;;;;4923414;29;20016;-79
2022/06/30 10:08:41;;;;;;;0.00;0.00;;;46.10;43.90;;;;;;4925437;29;20032;-80
2022/06/30 10:11:08;;;;;;;0.00;0.00;;;46.80;42.70;;;;;;4925282;29;20136;-81
2022/06/30 10:13:36;;;;;;;0.00;0.00;;;47.30;42.30;;;;;;4955410;29;20016;-81
2022/06/30 10:16:04;;;;;;;0.00;0.00;;;46.50;42.20;;;;;;4924685;29;20074;-80
2022/06/30 10:18:32;;;;;;;0.00;0.00;;;46.30;42.40;;;;;;4925119;29;20048;-80
2022/06/30 10:20:58;;;;;;;0.00;0.00;;;46.70;43.50;;;;;;4957161;29;20056;-82
2022/06/30 10:23:24;;;;;;;0.00;0.00;;;47.70;44.00;;;;;;4927968;29;20043;-82
2022/06/30 10:25:52;;;;;;;0.00;0.00;;;47.10;40.70;;;;;;4922785;29;20221;-83
2022/06/30 10:28:19;;;;;;;0.00;0.00;;;46.80;41.10;;;;;;4923494;29;20215;-77
2022/06/30 10:30:50;;;;;;;0.00;0.00;;;46.30;41.00;;;;;;4925207;29;20032;-83
2022/06/30 10:33:20;;;;;;;0.00;0.00;;;46.80;43.80;;;;;;4924362;29;20291;-76
2022/06/30 10:35:52;;;;;;;0.00;0.00;;;46.70;42.10;;;;;;4924165;29;20035;-81
2022/06/30 10:38:20;;;;;;;0.00;0.00;;;48.00;42.40;;;;;;4922973;29;20020;-76
2022/06/30 10:41:10;;;;;;;0.00;0.00;;;48.50;41.00;;;;;;4952637;28;20250;-81
2022/06/30 10:44:04;;;;;;;0.00;0.00;;;47.90;41.20;;;;;;4921552;29;20149;-79
2022/06/30 10:46:30;;;;;;;0.00;0.00;;;47.80;40.70;;;;;;4937371;29;20024;-78
2022/06/30 10:48:56;;;;;;;0.00;0.00;;;47.90;40.30;;;;;;4922821;29;20031;-80
2022/06/30 10:51:24;;;;;;;0.00;0.00;;;47.60;41.00;;;;;;4923158;29;20230;-79
2022/06/30 10:53:51;;;;;;;0.00;0.00;;;47.60;40.70;;;;;;4923579;29;20024;-79
2022/06/30 10:56:18;;;;;;;0.00;0.00;;;47.90;41.80;;;;;;4923179;29;20247;-75
2022/06/30 10:59:07;;;;;;;0.00;0.00;;;49.20;42.10;;;;;;4955111;29;20292;-77
2022/06/30 11:01:33;;;;;;;0.00;0.00;;;49.30;39.50;;;;;;4951473;29;20030;-76
2022/06/30 11:03:59;;;;;;;0.00;0.00;;;48.70;39.40;;;;;;4922890;29;20282;-77
2022/06/30 11:06:53;;;;;;;0.00;0.00;;;49.00;41.50;;;;;;4939887;29;20020;-78
2022/06/30 11:09:39;;;;;;;;;;;50.10;41.30;;;;;;4926630;29;20264;-76
2022/06/30 11:12:05;;;;;;;0.00;0.00;;;50.70;39.30;;;;;;4923075;29;19931;-77
2022/06/30 11:14:32;;;;;;;0.00;0.00;;;49.90;38.60;;;;;;4954252;29;20268;-77
2022/06/30 11:16:59;;;;;;;0.00;0.00;;;49.00;39.60;;;;;;4924069;29;20023;-76
2022/06/30 11:19:25;;;;;;;0.00;0.00;;;48.40;39.00;;;;;;4924862;29;20043;-77
2022/06/30 11:21:52;;;;;;;0.00;0.00;;;47.90;40.20;;;;;;4924608;29;20028;-76
2022/06/30 11:24:22;;;;;;;0.00;0.00;;;47.40;40.10;;;;;;4905471;29;20032;-76
2022/06/30 11:29:33;;;;;;;0.00;0.00;;;45.70;40.80;;;;;;4924269;29;20027;-78
2022/06/30 11:32:00;;;;;;;0.00;0.00;;;45.50;42.30;;;;;;4923598;29;20224;-78
2022/06/30 11:34:28;;;;;;;0.00;0.00;;;45.10;41.30;;;;;;4922273;29;20030;-80
2022/06/30 11:36:54;;;;;;;0.00;0.00;;;44.20;42.20;;;;;;4923819;29;20016;-76
2022/06/30 11:39:21;;;;;;;0.00;0.00;;;43.30;43.00;;;;;;4924309;29;20043;-76
2022/06/30 11:41:55;;;;;;;0.00;0.00;;;42.80;45.10;;;;;;4922600;29;20028;-76
2022/06/30 11:44:32;;;;;;;0.00;0.00;;;42.60;45.40;;;;;;4923659;29;20020;-74
2022/06/30 11:46:58;;;;;;;0.00;0.00;;;41.60;46.10;;;;;;4919248;29;20024;-76
2022/06/30 11:49:27;;;;;;;0.00;0.00;;;40.40;46.40;;;;;;4942814;28;20293;-77
2022/06/30 11:51:54;;;;;;;0.00;0.00;;;39.70;48.80;;;;;;4924352;29;20048;-75
2022/06/30 11:54:24;;;;;;;0.00;0.00;;;39.10;49.30;;;;;;4954737;29;20122;-77
2022/06/30 11:56:53;;;;;;;0.00;0.00;;;38.20;49.50;;;;;;4918025;29;20040;-79
2022/06/30 11:59:19;;;;;;;0.00;0.00;;;37.50;50.50;;;;;;4924400;29;20040;-76
2022/06/30 12:02:03;;;;;;;0.00;0.00;;;36.90;51.30;;;;;;4922849;29;20028;-76
2022/06/30 12:04:29;;;;;;;0.00;0.00;;;36.40;52.60;;;;;;4924912;29;20145;-79
2022/06/30 12:06:55;;;;;;;0.00;0.00;;;36.00;55.20;;;;;;4937591;29;20021;-80
2022/06/30 12:09:20;;;;;;;0.00;0.00;;;35.70;53.90;;;;;;4904067;29;20028;-77
2022/06/30 12:11:46;;;;;;;0.00;0.00;;;35.20;54.10;;;;;;4921365;29;20035;-77
2022/06/30 12:14:12;;;;;;;0.00;0.00;;;34.90;54.80;;;;;;4927777;29;20104;-76
2022/06/30 12:16:38;;;;;;;0.00;0.00;;;34.70;56.10;;;;;;4922094;29;20091;-77
2022/06/30 12:19:04;;;;;;;0.00;0.00;;;34.60;56.40;;;;;;4924820;29;20275;-77
2022/06/30 12:21:30;;;;;;;0.00;0.00;;;34.30;56.60;;;;;;4922666;29;20028;-79
2022/06/30 12:23:56;;;;;;;0.00;0.00;;;34.30;58.80;;;;;;4925194;29;20028;-77
2022/06/30 12:26:23;;;;;;;0.00;0.00;;;34.20;59.20;;;;;;4923088;29;20144;-77
2022/06/30 12:28:56;;;;;;;0.00;0.00;;;34.00;59.10;;;;;;4923418;29;20035;-78
2022/06/30 12:31:26;;;;;;;0.00;0.00;;;33.90;59.70;;;;;;4923422;29;20272;-79
2022/06/30 12:33:54;;;;;;;0.00;0.00;;;33.80;59.20;;;;;;4923563;29;20020;-79
2022/06/30 12:36:29;;;;;;;0.00;0.00;;;33.60;59.50;;;;;;4924189;29;20087;-78
2022/06/30 12:38:55;;;;;;;0.00;0.00;;;33.50;60.40;;;;;;4923111;29;20064;-77
2022/06/30 12:41:23;;;;;;;0.00;0.00;;;33.40;58.90;;;;;;4922628;29;20028;-78
2022/06/30 12:43:51;;;;;;;0.00;0.00;;;33.40;59.40;;;;;;4923967;29;20067;-79
2022/06/30 12:46:18;;;;;;;0.00;0.00;;;33.50;59.70;;;;;;4924377;29;20020;-75
2022/06/30 12:48:50;;;;;;;;;;;33.30;59.60;;;;;;4923994;29;20048;-80
2022/06/30 12:51:37;;;;;;;0.00;0.00;;;33.10;60.30;;;;;;4924300;29;20083;-78
2022/06/30 12:54:07;;;;;;;;;;;33.00;60.40;;;;;;4923605;29;20303;-78
2022/06/30 12:56:34;;;;;;;0.00;0.00;;;32.90;60.10;;;;;;4926609;29;20126;-77
2022/06/30 12:58:59;;;;;;;0.00;0.00;;;32.80;61.00;;;;;;4931504;29;20034;-76
2022/06/30 13:01:30;;;;;;;0.00;0.00;;;32.80;61.00;;;;;;4931329;29;20027;-77
2022/06/30 13:03:58;;;;;;;0.00;0.00;;;32.80;60.60;;;;;;4934840;29;20323;-76